sensor_id;sensor_type;location;lat;lon;timestamp;temperature;humidity
58153;DHT22;43967;51.634;5.566;2023-01-25T00:03:46;18.00;54.80
58153;DHT22;43967;51.634;5.566;2023-01-25T00:08:50;18.00;54.30
58153;DHT22;43967;51.634;5.566;2023-01-25T00:13:54;17.90;54.30
58153;DHT22;43967;51.634;5.566;2023-01-25T00:18:55;17.90;54.20
58153;DHT22;43967;51.634;5.566;2023-01-25T00:23:57;17.90;54.00
58153;DHT22;43967;51.634;5.566;2023-01-25T00:28:58;17.80;53.90
58153;DHT22;43967;51.634;5.566;2023-01-25T00:34:32;17.80;53.70
58153;DHT22;43967;51.634;5.566;2023-01-25T00:39:37;17.80;53.70
58153;DHT22;43967;51.634;5.566;2023-01-25T00:44:39;17.80;53.80
58153;DHT22;43967;51.634;5.566;2023-01-25T00:49:41;17.70;53.60
58153;DHT22;43967;51.634;5.566;2023-01-25T00:54:42;17.70;53.60
58153;DHT22;43967;51.634;5.566;2023-01-25T00:59:43;17.70;53.60
58153;DHT22;43967;51.634;5.566;2023-01-25T01:04:44;17.70;53.50
58153;DHT22;43967;51.634;5.566;2023-01-25T01:09:45;17.70;53.40
58153;DHT22;43967;51.634;5.566;2023-01-25T01:14:46;17.70;53.40
58153;DHT22;43967;51.634;5.566;2023-01-25T01:19:47;17.70;53.30
58153;DHT22;43967;51.634;5.566;2023-01-25T01:24:48;17.70;53.30
58153;DHT22;43967;51.634;5.566;2023-01-25T01:29:49;17.60;53.20
58153;DHT22;43967;51.634;5.566;2023-01-25T01:34:50;17.60;53.20
58153;DHT22;43967;51.634;5.566;2023-01-25T01:39:51;17.60;53.10
58153;DHT22;43967;51.634;5.566;2023-01-25T01:44:53;17.60;53.20
58153;DHT22;43967;51.634;5.566;2023-01-25T01:50:03;17.60;53.10
58153;DHT22;43967;51.634;5.566;2023-01-25T01:55:13;17.50;53.00
58153;DHT22;43967;51.634;5.566;2023-01-25T02:00:23;17.60;53.10
58153;DHT22;43967;51.634;5.566;2023-01-25T02:05:26;17.50;53.00
58153;DHT22;43967;51.634;5.566;2023-01-25T02:10:30;17.50;53.00
58153;DHT22;43967;51.634;5.566;2023-01-25T02:15:38;17.50;52.90
58153;DHT22;43967;51.634;5.566;2023-01-25T02:20:45;17.50;52.90
58153;DHT22;43967;51.634;5.566;2023-01-25T02:25:46;17.50;52.80
58153;DHT22;43967;51.634;5.566;2023-01-25T02:30:48;17.50;52.80
58153;DHT22;43967;51.634;5.566;2023-01-25T02:35:55;17.40;52.70
58153;DHT22;43967;51.634;5.566;2023-01-25T02:41:13;17.40;52.60
58153;DHT22;43967;51.634;5.566;2023-01-25T02:46:22;17.40;52.60
58153;DHT22;43967;51.634;5.566;2023-01-25T02:51:26;17.40;52.50
58153;DHT22;43967;51.634;5.566;2023-01-25T02:56:28;17.30;52.40
58153;DHT22;43967;51.634;5.566;2023-01-25T03:01:31;17.30;52.50
58153;DHT22;43967;51.634;5.566;2023-01-25T03:06:33;17.30;52.60
58153;DHT22;43967;51.634;5.566;2023-01-25T03:11:35;17.30;52.40
58153;DHT22;43967;51.634;5.566;2023-01-25T03:16:36;17.30;52.40
58153;DHT22;43967;51.634;5.566;2023-01-25T03:21:39;17.30;52.40
58153;DHT22;43967;51.634;5.566;2023-01-25T03:26:42;17.20;52.20
58153;DHT22;43967;51.634;5.566;2023-01-25T03:31:43;17.30;52.30
58153;DHT22;43967;51.634;5.566;2023-01-25T03:36:44;17.20;52.10
58153;DHT22;43967;51.634;5.566;2023-01-25T03:41:45;17.20;52.20
58153;DHT22;43967;51.634;5.566;2023-01-25T03:46:46;17.20;52.10
58153;DHT22;43967;51.634;5.566;2023-01-25T03:51:47;17.20;52.30
58153;DHT22;43967;51.634;5.566;2023-01-25T03:56:48;17.20;52.10
58153;DHT22;43967;51.634;5.566;2023-01-25T04:01:49;17.10;52.00
58153;DHT22;43967;51.634;5.566;2023-01-25T04:06:50;17.10;52.00
58153;DHT22;43967;51.634;5.566;2023-01-25T04:11:51;17.20;52.10
58153;DHT22;43967;51.634;5.566;2023-01-25T04:16:52;17.10;52.00
58153;DHT22;43967;51.634;5.566;2023-01-25T04:21:53;17.10;52.00
58153;DHT22;43967;51.634;5.566;2023-01-25T04:26:54;17.10;52.00
58153;DHT22;43967;51.634;5.566;2023-01-25T04:31:55;17.10;51.90
58153;DHT22;43967;51.634;5.566;2023-01-25T04:36:56;17.00;51.90
58153;DHT22;43967;51.634;5.566;2023-01-25T04:41:57;17.10;52.00
58153;DHT22;43967;51.634;5.566;2023-01-25T04:46:58;17.00;51.90
58153;DHT22;43967;51.634;5.566;2023-01-25T04:51:59;17.00;51.90
58153;DHT22;43967;51.634;5.566;2023-01-25T04:57:00;17.00;51.80
58153;DHT22;43967;51.634;5.566;2023-01-25T05:02:01;17.00;52.00
58153;DHT22;43967;51.634;5.566;2023-01-25T05:07:02;17.00;51.90
58153;DHT22;43967;51.634;5.566;2023-01-25T05:12:03;17.00;51.90
58153;DHT22;43967;51.634;5.566;2023-01-25T05:17:05;17.00;51.90
58153;DHT22;43967;51.634;5.566;2023-01-25T05:22:06;16.90;51.80
58153;DHT22;43967;51.634;5.566;2023-01-25T05:27:08;16.90;51.80
58153;DHT22;43967;51.634;5.566;2023-01-25T05:32:17;16.90;51.80
58153;DHT22;43967;51.634;5.566;2023-01-25T05:37:20;16.90;51.70
58153;DHT22;43967;51.634;5.566;2023-01-25T05:42:21;16.90;51.60
58153;DHT22;43967;51.634;5.566;2023-01-25T05:47:22;16.90;51.90
58153;DHT22;43967;51.634;5.566;2023-01-25T05:52:23;16.90;52.00
58153;DHT22;43967;51.634;5.566;2023-01-25T05:57:24;16.90;51.90
58153;DHT22;43967;51.634;5.566;2023-01-25T06:02:25;16.90;51.80
58153;DHT22;43967;51.634;5.566;2023-01-25T06:07:26;16.90;51.70
58153;DHT22;43967;51.634;5.566;2023-01-25T06:12:27;16.90;51.90
58153;DHT22;43967;51.634;5.566;2023-01-25T06:17:28;16.80;52.10
58153;DHT22;43967;51.634;5.566;2023-01-25T06:22:29;16.70;52.20
58153;DHT22;43967;51.634;5.566;2023-01-25T06:27:30;16.70;52.50
58153;DHT22;43967;51.634;5.566;2023-01-25T06:32:31;16.70;52.70
58153;DHT22;43967;51.634;5.566;2023-01-25T06:37:32;16.70;52.80
58153;DHT22;43967;51.634;5.566;2023-01-25T06:42:33;16.70;52.50
58153;DHT22;43967;51.634;5.566;2023-01-25T06:47:34;16.50;52.40
58153;DHT22;43967;51.634;5.566;2023-01-25T06:52:36;16.50;52.50
58153;DHT22;43967;51.634;5.566;2023-01-25T06:57:36;16.50;52.90
58153;DHT22;43967;51.634;5.566;2023-01-25T07:02:38;16.60;52.90
58153;DHT22;43967;51.634;5.566;2023-01-25T07:07:39;16.60;52.60
58153;DHT22;43967;51.634;5.566;2023-01-25T07:12:40;16.60;52.50
58153;DHT22;43967;51.634;5.566;2023-01-25T07:17:41;16.60;52.40
58153;DHT22;43967;51.634;5.566;2023-01-25T07:22:42;16.60;52.50
58153;DHT22;43967;51.634;5.566;2023-01-25T07:27:43;16.60;52.50
58153;DHT22;43967;51.634;5.566;2023-01-25T07:32:44;16.60;52.50
58153;DHT22;43967;51.634;5.566;2023-01-25T07:37:45;16.70;52.80
58153;DHT22;43967;51.634;5.566;2023-01-25T07:42:46;16.70;52.60
58153;DHT22;43967;51.634;5.566;2023-01-25T07:47:47;16.70;52.40
58153;DHT22;43967;51.634;5.566;2023-01-25T07:52:48;16.80;52.70
58153;DHT22;43967;51.634;5.566;2023-01-25T07:57:53;16.80;52.90
58153;DHT22;43967;51.634;5.566;2023-01-25T08:02:54;16.90;52.90
58153;DHT22;43967;51.634;5.566;2023-01-25T08:07:55;17.00;53.00
58153;DHT22;43967;51.634;5.566;2023-01-25T08:12:56;17.00;53.00
58153;DHT22;43967;51.634;5.566;2023-01-25T08:18:00;17.00;52.90
58153;DHT22;43967;51.634;5.566;2023-01-25T08:23:01;17.10;53.10
58153;DHT22;43967;51.634;5.566;2023-01-25T08:28:04;17.20;53.10
58153;DHT22;43967;51.634;5.566;2023-01-25T08:33:05;17.20;52.70
58153;DHT22;43967;51.634;5.566;2023-01-25T08:38:06;17.30;52.80
58153;DHT22;43967;51.634;5.566;2023-01-25T08:43:07;17.30;52.60
58153;DHT22;43967;51.634;5.566;2023-01-25T08:48:08;17.30;52.80
58153;DHT22;43967;51.634;5.566;2023-01-25T08:53:09;17.40;52.90
58153;DHT22;43967;51.634;5.566;2023-01-25T08:58:11;17.20;50.30
58153;DHT22;43967;51.634;5.566;2023-01-25T09:03:12;17.20;52.60
58153;DHT22;43967;51.634;5.566;2023-01-25T09:08:13;17.20;53.10
58153;DHT22;43967;51.634;5.566;2023-01-25T09:13:14;17.20;53.50
58153;DHT22;43967;51.634;5.566;2023-01-25T09:18:15;17.30;53.70
58153;DHT22;43967;51.634;5.566;2023-01-25T09:23:16;17.30;54.00
58153;DHT22;43967;51.634;5.566;2023-01-25T09:28:17;17.30;54.00
58153;DHT22;43967;51.634;5.566;2023-01-25T09:33:18;17.40;53.90
58153;DHT22;43967;51.634;5.566;2023-01-25T09:38:20;17.40;53.90
58153;DHT22;43967;51.634;5.566;2023-01-25T09:43:31;17.50;53.90
58153;DHT22;43967;51.634;5.566;2023-01-25T09:48:42;17.50;53.70
58153;DHT22;43967;51.634;5.566;2023-01-25T09:53:49;17.50;53.70
58153;DHT22;43967;51.634;5.566;2023-01-25T09:59:02;17.50;53.70
58153;DHT22;43967;51.634;5.566;2023-01-25T10:04:12;17.50;53.70
58153;DHT22;43967;51.634;5.566;2023-01-25T10:09:40;17.50;53.60
58153;DHT22;43967;51.634;5.566;2023-01-25T10:14:43;17.50;53.50
58153;DHT22;43967;51.634;5.566;2023-01-25T10:20:02;17.50;53.40
58153;DHT22;43967;51.634;5.566;2023-01-25T10:25:35;17.60;53.50
58153;DHT22;43967;51.634;5.566;2023-01-25T10:30:54;17.60;53.40
58153;DHT22;43967;51.634;5.566;2023-01-25T10:35:57;17.60;53.40
58153;DHT22;43967;51.634;5.566;2023-01-25T10:41:19;17.60;53.30
58153;DHT22;43967;51.634;5.566;2023-01-25T10:46:24;17.60;53.40
58153;DHT22;43967;51.634;5.566;2023-01-25T10:51:31;17.60;53.20
58153;DHT22;43967;51.634;5.566;2023-01-25T10:56:34;17.60;53.10
58153;DHT22;43967;51.634;5.566;2023-01-25T11:01:36;17.60;53.10
58153;DHT22;43967;51.634;5.566;2023-01-25T11:06:45;17.40;52.10
58153;DHT22;43967;51.634;5.566;2023-01-25T11:12:01;17.20;52.20
58153;DHT22;43967;51.634;5.566;2023-01-25T11:17:04;17.20;52.80
58153;DHT22;43967;51.634;5.566;2023-01-25T11:22:20;17.20;52.00
58153;DHT22;43967;51.634;5.566;2023-01-25T11:32:24;17.20;53.30
58153;DHT22;43967;51.634;5.566;2023-01-25T11:37:38;17.30;52.90
58153;DHT22;43967;51.634;5.566;2023-01-25T12:03:49;17.80;52.20
58153;DHT22;43967;51.634;5.566;2023-01-25T12:35:36;17.90;51.40
58153;DHT22;43967;51.634;5.566;2023-01-25T12:45:44;17.80;51.30
58153;DHT22;43967;51.634;5.566;2023-01-25T12:50:55;17.80;51.30
58153;DHT22;43967;51.634;5.566;2023-01-25T12:55:57;17.80;51.00
58153;DHT22;43967;51.634;5.566;2023-01-25T13:11:42;17.70;50.90
58153;DHT22;43967;51.634;5.566;2023-01-25T13:16:52;17.70;50.80
58153;DHT22;43967;51.634;5.566;2023-01-25T13:21:55;17.70;50.80
58153;DHT22;43967;51.634;5.566;2023-01-25T13:27:22;17.70;50.70
58153;DHT22;43967;51.634;5.566;2023-01-25T13:37:33;17.70;50.50
58153;DHT22;43967;51.634;5.566;2023-01-25T13:42:36;17.60;50.50
58153;DHT22;43967;51.634;5.566;2023-01-25T13:47:38;17.60;50.50
58153;DHT22;43967;51.634;5.566;2023-01-25T13:52:56;17.60;50.50
58153;DHT22;43967;51.634;5.566;2023-01-25T13:58:44;17.50;50.30
58153;DHT22;43967;51.634;5.566;2023-01-25T14:03:50;16.70;49.00
58153;DHT22;43967;51.634;5.566;2023-01-25T14:08:53;16.90;50.20
58153;DHT22;43967;51.634;5.566;2023-01-25T14:14:20;17.00;50.40
58153;DHT22;43967;51.634;5.566;2023-01-25T14:19:26;17.10;50.70
58153;DHT22;43967;51.634;5.566;2023-01-25T14:24:28;17.10;50.90
58153;DHT22;43967;51.634;5.566;2023-01-25T14:29:29;17.10;51.00
58153;DHT22;43967;51.634;5.566;2023-01-25T14:34:32;16.80;48.90
58153;DHT22;43967;51.634;5.566;2023-01-25T14:39:33;16.80;49.70
58153;DHT22;43967;51.634;5.566;2023-01-25T14:44:34;16.80;50.10
58153;DHT22;43967;51.634;5.566;2023-01-25T14:49:35;16.80;50.10
58153;DHT22;43967;51.634;5.566;2023-01-25T14:55:02;16.80;50.70
58153;DHT22;43967;51.634;5.566;2023-01-25T15:00:22;16.80;50.90
58153;DHT22;43967;51.634;5.566;2023-01-25T15:05:29;16.90;51.10
58153;DHT22;43967;51.634;5.566;2023-01-25T15:10:32;16.90;51.30
58153;DHT22;43967;51.634;5.566;2023-01-25T15:15:34;16.90;51.20
58153;DHT22;43967;51.634;5.566;2023-01-25T15:20:39;17.00;51.90
58153;DHT22;43967;51.634;5.566;2023-01-25T15:25:51;17.20;52.10
58153;DHT22;43967;51.634;5.566;2023-01-25T15:30:53;17.20;51.80
58153;DHT22;43967;51.634;5.566;2023-01-25T15:35:55;17.40;51.90
58153;DHT22;43967;51.634;5.566;2023-01-25T15:40:56;17.50;51.90
58153;DHT22;43967;51.634;5.566;2023-01-25T15:45:57;17.50;51.80
58153;DHT22;43967;51.634;5.566;2023-01-25T15:50:59;17.60;51.00
58153;DHT22;43967;51.634;5.566;2023-01-25T15:56:03;17.50;51.60
58153;DHT22;43967;51.634;5.566;2023-01-25T16:01:05;17.50;51.80
58153;DHT22;43967;51.634;5.566;2023-01-25T16:11:33;17.60;52.00
58153;DHT22;43967;51.634;5.566;2023-01-25T16:16:41;17.60;52.10
58153;DHT22;43967;51.634;5.566;2023-01-25T16:21:43;17.60;52.40
58153;DHT22;43967;51.634;5.566;2023-01-25T16:26:48;17.50;52.70
58153;DHT22;43967;51.634;5.566;2023-01-25T16:31:51;17.50;53.40
58153;DHT22;43967;51.634;5.566;2023-01-25T16:36:52;17.50;53.90
58153;DHT22;43967;51.634;5.566;2023-01-25T16:41:54;17.50;56.70
58153;DHT22;43967;51.634;5.566;2023-01-25T16:46:55;17.60;57.40
58153;DHT22;43967;51.634;5.566;2023-01-25T16:52:01;17.70;57.40
58153;DHT22;43967;51.634;5.566;2023-01-25T16:57:03;17.70;57.30
58153;DHT22;43967;51.634;5.566;2023-01-25T17:02:04;17.70;57.20
58153;DHT22;43967;51.634;5.566;2023-01-25T17:07:05;17.90;57.10
58153;DHT22;43967;51.634;5.566;2023-01-25T17:12:06;18.00;56.70
58153;DHT22;43967;51.634;5.566;2023-01-25T17:17:07;18.00;56.30
58153;DHT22;43967;51.634;5.566;2023-01-25T17:22:08;18.00;56.10
58153;DHT22;43967;51.634;5.566;2023-01-25T17:27:09;18.10;56.00
58153;DHT22;43967;51.634;5.566;2023-01-25T17:32:10;18.10;55.80
58153;DHT22;43967;51.634;5.566;2023-01-25T17:37:11;18.20;55.70
58153;DHT22;43967;51.634;5.566;2023-01-25T17:42:12;18.20;55.20
58153;DHT22;43967;51.634;5.566;2023-01-25T17:47:13;18.10;55.30
58153;DHT22;43967;51.634;5.566;2023-01-25T17:52:14;18.00;55.00
58153;DHT22;43967;51.634;5.566;2023-01-25T17:57:15;18.10;55.20
58153;DHT22;43967;51.634;5.566;2023-01-25T18:02:16;18.10;55.10
58153;DHT22;43967;51.634;5.566;2023-01-25T18:07:17;17.90;53.40
58153;DHT22;43967;51.634;5.566;2023-01-25T18:12:19;17.80;54.60
58153;DHT22;43967;51.634;5.566;2023-01-25T18:17:20;17.80;53.90
58153;DHT22;43967;51.634;5.566;2023-01-25T18:22:21;17.80;53.70
58153;DHT22;43967;51.634;5.566;2023-01-25T18:27:24;17.80;53.90
58153;DHT22;43967;51.634;5.566;2023-01-25T18:32:27;18.00;53.70
58153;DHT22;43967;51.634;5.566;2023-01-25T18:37:28;18.20;54.00
58153;DHT22;43967;51.634;5.566;2023-01-25T18:42:29;18.30;54.30
58153;DHT22;43967;51.634;5.566;2023-01-25T18:47:30;18.40;54.60
58153;DHT22;43967;51.634;5.566;2023-01-25T18:52:33;18.40;54.80
58153;DHT22;43967;51.634;5.566;2023-01-25T18:57:34;18.50;54.80
58153;DHT22;43967;51.634;5.566;2023-01-25T19:02:36;18.50;54.70
58153;DHT22;43967;51.634;5.566;2023-01-25T19:07:37;18.30;54.50
58153;DHT22;43967;51.634;5.566;2023-01-25T19:12:38;18.20;54.40
58153;DHT22;43967;51.634;5.566;2023-01-25T19:17:39;18.20;54.50
58153;DHT22;43967;51.634;5.566;2023-01-25T19:22:40;18.20;54.50
58153;DHT22;43967;51.634;5.566;2023-01-25T19:27:41;18.20;54.40
58153;DHT22;43967;51.634;5.566;2023-01-25T19:32:42;18.10;54.30
58153;DHT22;43967;51.634;5.566;2023-01-25T19:37:43;18.10;54.00
58153;DHT22;43967;51.634;5.566;2023-01-25T19:42:45;17.90;52.30
58153;DHT22;43967;51.634;5.566;2023-01-25T19:47:52;17.70;52.00
58153;DHT22;43967;51.634;5.566;2023-01-25T19:52:56;17.70;53.40
58153;DHT22;43967;51.634;5.566;2023-01-25T19:58:06;17.90;53.70
58153;DHT22;43967;51.634;5.566;2023-01-25T20:03:09;18.00;54.00
58153;DHT22;43967;51.634;5.566;2023-01-25T20:08:18;18.10;54.20
58153;DHT22;43967;51.634;5.566;2023-01-25T20:13:19;18.10;54.30
58153;DHT22;43967;51.634;5.566;2023-01-25T20:18:22;18.20;54.30
58153;DHT22;43967;51.634;5.566;2023-01-25T21:31:25;18.20;53.60
58153;DHT22;43967;51.634;5.566;2023-01-25T21:36:27;18.00;53.50
58153;DHT22;43967;51.634;5.566;2023-01-25T21:41:30;17.90;53.10
58153;DHT22;43967;51.634;5.566;2023-01-25T21:46:31;17.80;53.00
58153;DHT22;43967;51.634;5.566;2023-01-25T21:51:32;17.80;53.10
58153;DHT22;43967;51.634;5.566;2023-01-25T21:56:48;17.70;53.10
58153;DHT22;43967;51.634;5.566;2023-01-25T22:01:50;17.70;54.00
58153;DHT22;43967;51.634;5.566;2023-01-25T22:06:51;17.80;53.20
58153;DHT22;43967;51.634;5.566;2023-01-25T22:11:52;17.80;53.00
58153;DHT22;43967;51.634;5.566;2023-01-25T22:16:53;17.80;52.90
58153;DHT22;43967;51.634;5.566;2023-01-25T22:22:06;17.80;52.70
58153;DHT22;43967;51.634;5.566;2023-01-25T22:32:08;17.70;52.50
58153;DHT22;43967;51.634;5.566;2023-01-25T22:37:11;17.70;52.70
58153;DHT22;43967;51.634;5.566;2023-01-25T22:42:12;17.70;52.50
58153;DHT22;43967;51.634;5.566;2023-01-25T22:47:13;17.70;52.30
58153;DHT22;43967;51.634;5.566;2023-01-25T22:52:14;17.70;52.20
58153;DHT22;43967;51.634;5.566;2023-01-25T22:57:15;17.70;52.00
58153;DHT22;43967;51.634;5.566;2023-01-25T23:02:16;17.70;51.90
58153;DHT22;43967;51.634;5.566;2023-01-25T23:07:17;17.70;51.80
58153;DHT22;43967;51.634;5.566;2023-01-25T23:12:19;17.70;51.60
58153;DHT22;43967;51.634;5.566;2023-01-25T23:17:21;17.70;51.50
58153;DHT22;43967;51.634;5.566;2023-01-25T23:22:24;17.70;51.40
58153;DHT22;43967;51.634;5.566;2023-01-25T23:27:25;17.70;51.20
58153;DHT22;43967;51.634;5.566;2023-01-25T23:32:26;17.70;51.20
58153;DHT22;43967;51.634;5.566;2023-01-25T23:37:28;17.60;51.00
58153;DHT22;43967;51.634;5.566;2023-01-25T23:42:29;17.60;51.00
58153;DHT22;43967;51.634;5.566;2023-01-25T23:47:30;17.60;50.90
58153;DHT22;43967;51.634;5.566;2023-01-25T23:52:31;17.60;50.80
58153;DHT22;43967;51.634;5.566;2023-01-25T23:57:32;17.60;50.70
